Time;durP1;ratioP1;P1;durP2;ratioP2;P2;SDS_P1;SDS_P2;PMS_P1;PMS_P2;Temp;Humidity;BMP_temperature;BMP_pressure;BME280_temperature;BME280_humidity;BME280_pressure;Samples;Min_cycle;Max_cycle;Signal;HPM_P1;HPM_P2
2022/07/28 00:02:19;;;;;;;1.48;1.38;;;19.50;64.70;;;;;;5050178;28;20184;-62
2022/07/28 00:04:45;;;;;;;2.28;1.13;;;19.50;64.50;;;;;;5051971;28;20223;-63
2022/07/28 00:07:10;;;;;;;4.40;1.13;;;19.50;64.60;;;;;;5051858;28;20177;-63
2022/07/28 00:09:36;;;;;;;2.50;0.90;;;19.50;63.70;;;;;;5051590;28;20182;-63
2022/07/28 00:12:03;;;;;;;1.75;1.15;;;19.50;64.60;;;;;;5051740;28;20525;-63
2022/07/28 00:14:28;;;;;;;1.25;1.00;;;19.50;64.90;;;;;;5050332;28;20225;-62
2022/07/28 00:16:54;;;;;;;1.25;0.90;;;19.50;64.20;;;;;;5051464;28;20172;-62
2022/07/28 00:19:19;;;;;;;2.42;0.80;;;19.50;63.90;;;;;;5051493;28;20208;-63
2022/07/28 00:21:45;;;;;;;1.45;0.75;;;19.50;64.60;;;;;;5051410;28;20213;-63
2022/07/28 00:24:10;;;;;;;2.20;0.77;;;19.50;64.70;;;;;;5051485;28;20185;-63
2022/07/28 00:26:36;;;;;;;3.83;1.10;;;19.50;64.30;;;;;;5051320;28;20230;-63
2022/07/28 00:29:03;;;;;;;1.45;0.95;;;19.40;64.30;;;;;;5051143;28;20562;-63
2022/07/28 00:31:29;;;;;;;2.97;0.85;;;19.40;64.50;;;;;;5051696;28;20189;-63
2022/07/28 00:33:55;;;;;;;0.80;0.80;;;19.40;64.20;;;;;;5050084;28;20201;-63
2022/07/28 00:36:20;;;;;;;1.65;1.00;;;19.30;64.10;;;;;;5051348;28;20189;-62
2022/07/28 00:38:46;;;;;;;1.45;0.95;;;19.30;64.70;;;;;;5051208;28;20208;-62
2022/07/28 00:41:12;;;;;;;1.85;0.80;;;19.20;64.50;;;;;;5050522;28;20192;-62
2022/07/28 00:43:39;;;;;;;1.00;0.80;;;19.20;65.00;;;;;;5051194;28;20188;-63
2022/07/28 00:46:05;;;;;;;1.13;0.70;;;19.20;64.60;;;;;;5049809;28;20725;-63
2022/07/28 00:48:30;;;;;;;3.33;0.95;;;19.10;64.30;;;;;;5051070;28;20188;-63
2022/07/28 00:50:56;;;;;;;1.25;0.85;;;19.10;64.70;;;;;;5051094;28;20190;-62
2022/07/28 00:53:22;;;;;;;0.80;0.80;;;19.00;64.80;;;;;;5050969;28;20514;-63
2022/07/28 00:55:48;;;;;;;1.65;0.70;;;18.90;65.00;;;;;;5051085;28;20296;-62
2022/07/28 00:58:14;;;;;;;1.02;0.73;;;19.00;65.00;;;;;;5051155;28;20201;-63
2022/07/28 01:00:39;;;;;;;1.60;1.00;;;19.00;65.00;;;;;;5050985;28;20276;-62
2022/07/28 01:03:05;;;;;;;3.92;0.90;;;18.90;65.20;;;;;;5050729;28;20642;-63
2022/07/28 01:05:51;;;;;;;1.88;0.85;;;18.90;65.50;;;;;;5050820;28;20185;-63
2022/07/28 01:08:36;;;;;;;1.80;0.70;;;18.90;65.20;;;;;;5050960;28;20272;-62
2022/07/28 01:11:13;;;;;;;1.88;0.80;;;18.90;65.60;;;;;;5050498;28;20177;-63
2022/07/28 01:13:44;;;;;;;2.00;0.90;;;18.90;65.50;;;;;;5036817;28;20181;-62
2022/07/28 01:16:09;;;;;;;0.95;0.70;;;19.00;65.40;;;;;;5050899;28;20251;-62
2022/07/28 01:19:00;;;;;;;27.27;16.83;;;19.00;65.40;;;;;;5050670;28;20170;-62
2022/07/28 01:21:34;;;;;;;13.23;8.43;;;19.00;65.60;;;;;;5050540;28;20235;-62
2022/07/28 01:24:24;;;;;;;9.73;6.15;;;18.90;65.70;;;;;;5050648;28;20192;-63
2022/07/28 01:26:59;;;;;;;4.38;2.50;;;19.00;65.80;;;;;;5051003;28;20178;-63
2022/07/28 01:29:29;;;;;;;2.22;1.02;;;19.00;65.70;;;;;;5050668;28;20185;-63
2022/07/28 01:32:09;;;;;;;1.60;1.38;;;19.00;65.30;;;;;;5051065;28;20174;-63
2022/07/28 01:34:52;;;;;;;1.02;0.90;;;19.10;65.30;;;;;;5050560;28;20299;-62
2022/07/28 01:37:23;;;;;;;2.53;1.05;;;19.00;65.10;;;;;;5042865;28;20260;-62
2022/07/28 01:39:52;;;;;;;2.42;1.25;;;19.00;65.20;;;;;;5050778;28;20189;-63
2022/07/28 01:42:21;;;;;;;2.58;0.80;;;19.00;65.40;;;;;;5050172;28;20177;-62
2022/07/28 01:44:48;;;;;;;1.40;0.80;;;19.00;65.80;;;;;;5050882;28;20228;-62
2022/07/28 01:47:15;;;;;;;0.90;0.82;;;18.90;65.50;;;;;;5050566;28;20177;-63
2022/07/28 01:49:42;;;;;;;2.08;0.98;;;18.80;65.60;;;;;;5050218;28;20204;-62
2022/07/28 01:52:08;;;;;;;1.33;0.98;;;18.80;65.70;;;;;;5050395;28;20185;-63
2022/07/28 01:54:39;;;;;;;1.63;0.82;;;18.70;65.50;;;;;;5050384;28;20201;-62
2022/07/28 01:57:09;;;;;;;1.83;0.55;;;18.60;66.20;;;;;;5051795;28;20177;-62
2022/07/28 01:59:37;;;;;;;2.25;0.75;;;18.70;66.30;;;;;;5054360;28;20268;-62
2022/07/28 02:02:04;;;;;;;1.00;0.80;;;18.70;66.20;;;;;;5053630;28;20657;-62
2022/07/28 02:04:32;;;;;;;2.15;0.80;;;18.60;66.00;;;;;;5054016;28;20248;-62
2022/07/28 02:06:59;;;;;;;2.28;1.05;;;18.50;66.60;;;;;;5052843;28;20192;-63
2022/07/28 02:09:25;;;;;;;11.13;5.43;;;18.50;66.70;;;;;;5052924;28;20182;-62
2022/07/28 02:11:53;;;;;;;2.55;1.48;;;18.60;66.60;;;;;;5053466;28;20272;-63
2022/07/28 02:14:22;;;;;;;4.60;2.83;;;18.60;66.50;;;;;;5053720;28;20213;-62
2022/07/28 02:16:53;;;;;;;5.93;4.00;;;18.50;66.60;;;;;;5053632;28;20181;-62
2022/07/28 02:19:20;;;;;;;3.03;1.50;;;18.50;67.10;;;;;;5053566;28;20272;-63
2022/07/28 02:21:47;;;;;;;5.50;3.92;;;18.50;66.80;;;;;;5053667;28;20225;-63
2022/07/28 02:24:15;;;;;;;2.20;1.60;;;18.50;67.20;;;;;;5053594;28;20181;-63
2022/07/28 02:26:47;;;;;;;3.00;2.15;;;18.50;67.00;;;;;;5053499;28;20621;-63
2022/07/28 02:29:15;;;;;;;4.05;2.03;;;18.60;66.60;;;;;;5053856;28;20185;-63
2022/07/28 02:31:50;;;;;;;1.92;1.40;;;18.50;66.80;;;;;;5053182;28;20178;-62
2022/07/28 02:34:20;;;;;;;2.45;1.27;;;18.50;66.70;;;;;;5047304;28;20212;-63
2022/07/28 02:36:53;;;;;;;1.27;1.00;;;18.50;67.00;;;;;;5051881;28;20185;-63
2022/07/28 02:39:28;;;;;;;2.97;1.27;;;18.50;66.90;;;;;;5052975;28;20666;-63
2022/07/28 02:42:17;;;;;;;1.58;1.20;;;18.40;67.10;;;;;;5052039;28;20230;-62
2022/07/28 02:44:54;;;;;;;5.45;1.10;;;18.30;67.30;;;;;;5052782;28;20645;-62
2022/07/28 02:47:24;;;;;;;1.65;0.90;;;18.30;67.50;;;;;;5052945;28;20189;-63
2022/07/28 02:49:51;;;;;;;1.20;0.90;;;18.30;67.80;;;;;;5053326;28;20217;-62
2022/07/28 02:52:21;;;;;;;3.08;1.23;;;18.20;67.90;;;;;;5052962;28;20277;-62
2022/07/28 02:54:48;;;;;;;1.40;1.08;;;18.20;67.80;;;;;;5052916;28;20849;-62
2022/07/28 02:57:15;;;;;;;1.38;1.02;;;18.10;68.40;;;;;;5053178;28;20213;-63
2022/07/28 02:59:41;;;;;;;0.88;0.77;;;18.00;68.50;;;;;;5052958;28;20190;-62
2022/07/28 03:02:08;;;;;;;2.15;1.00;;;18.00;68.60;;;;;;5052595;28;20196;-63
2022/07/28 03:07:19;;;;;;;1.17;1.00;;;18.10;68.60;;;;;;5041715;28;20220;-63
2022/07/28 03:09:46;;;;;;;2.55;1.00;;;18.10;68.60;;;;;;5052144;28;20181;-62
2022/07/28 03:12:12;;;;;;;1.70;1.10;;;18.00;68.50;;;;;;5052618;28;20277;-62
2022/07/28 03:14:38;;;;;;;2.10;0.70;;;18.00;68.60;;;;;;5052618;28;20663;-62
2022/07/28 03:17:05;;;;;;;1.85;1.00;;;17.90;68.80;;;;;;5052770;28;20187;-62
2022/07/28 03:19:31;;;;;;;3.83;1.10;;;17.90;69.00;;;;;;5051149;28;20516;-62
2022/07/28 03:21:56;;;;;;;2.17;1.02;;;17.90;69.10;;;;;;5051200;28;20232;-63
2022/07/28 03:24:24;;;;;;;1.45;0.95;;;17.80;69.10;;;;;;5052495;28;20213;-62
2022/07/28 03:27:00;;;;;;;3.15;0.98;;;17.80;69.20;;;;;;5052253;28;20200;-62
2022/07/28 03:29:27;;;;;;;3.00;1.02;;;17.80;69.50;;;;;;5052445;28;20204;-62
2022/07/28 03:31:55;;;;;;;3.10;1.70;;;17.80;69.30;;;;;;5052136;28;20234;-62
2022/07/28 03:34:21;;;;;;;10.27;5.03;;;17.80;70.10;;;;;;5052135;28;20288;-62
2022/07/28 03:36:50;;;;;;;10.45;3.08;;;17.70;69.60;;;;;;5052195;28;20280;-62
2022/07/28 03:39:17;;;;;;;14.73;5.35;;;17.60;69.80;;;;;;5051901;28;20215;-62
2022/07/28 03:41:44;;;;;;;10.85;5.07;;;17.50;70.40;;;;;;5052152;28;20193;-62
2022/07/28 03:44:10;;;;;;;6.55;3.28;;;17.50;70.60;;;;;;5051652;28;20266;-62
2022/07/28 03:46:43;;;;;;;4.63;2.25;;;17.50;70.60;;;;;;5051897;28;20196;-62
2022/07/28 03:49:09;;;;;;;4.80;2.40;;;17.50;70.40;;;;;;5051857;28;20219;-62
2022/07/28 03:51:34;;;;;;;5.57;2.50;;;17.50;70.80;;;;;;5052399;28;20185;-62
2022/07/28 03:54:00;;;;;;;6.65;3.00;;;17.40;71.10;;;;;;5051714;28;20212;-62
2022/07/28 03:56:25;;;;;;;2.53;1.63;;;17.40;71.00;;;;;;5052106;28;20193;-61
2022/07/28 03:58:51;;;;;;;1.38;1.20;;;17.30;71.00;;;;;;5051463;28;20214;-62
2022/07/28 04:01:16;;;;;;;4.05;1.17;;;17.20;71.10;;;;;;5051317;28;20579;-62
2022/07/28 04:03:42;;;;;;;3.65;1.00;;;17.20;71.40;;;;;;5051178;28;20196;-62
2022/07/28 04:06:07;;;;;;;9.60;6.10;;;17.10;71.60;;;;;;5051065;28;20181;-62
2022/07/28 04:08:33;;;;;;;4.32;2.28;;;17.00;71.90;;;;;;5055458;28;20211;-62
2022/07/28 04:10:59;;;;;;;1.83;1.00;;;17.00;72.20;;;;;;5051955;28;20165;-63
2022/07/28 04:13:24;;;;;;;1.98;1.77;;;16.90;73.00;;;;;;5051675;28;20211;-62
2022/07/28 04:15:50;;;;;;;2.35;1.30;;;16.90;72.70;;;;;;5050544;28;20217;-60
2022/07/28 04:18:17;;;;;;;2.03;1.30;;;16.90;72.80;;;;;;5051305;28;20321;-62
2022/07/28 04:20:42;;;;;;;2.70;1.30;;;16.90;72.90;;;;;;5050463;28;20200;-63
2022/07/28 04:23:08;;;;;;;4.25;1.40;;;17.00;73.10;;;;;;5051722;28;20590;-62
2022/07/28 04:25:34;;;;;;;3.88;1.17;;;16.90;73.00;;;;;;5050143;28;20640;-61
2022/07/28 04:28:01;;;;;;;2.95;1.20;;;16.90;73.10;;;;;;5051852;28;20655;-63
2022/07/28 04:30:27;;;;;;;7.38;2.88;;;17.00;73.30;;;;;;5051777;28;20583;-61
2022/07/28 04:32:54;;;;;;;5.45;3.13;;;17.00;73.40;;;;;;5051037;28;20516;-65
2022/07/28 04:35:23;;;;;;;3.00;1.38;;;17.00;73.30;;;;;;5051117;28;20296;-63
2022/07/28 04:37:49;;;;;;;1.80;1.13;;;17.00;73.20;;;;;;5051817;28;20189;-62
2022/07/28 04:40:15;;;;;;;2.20;1.20;;;17.10;73.50;;;;;;5050899;28;20169;-63
2022/07/28 04:42:42;;;;;;;1.65;1.10;;;17.20;73.30;;;;;;5051333;28;20193;-59
2022/07/28 04:45:10;;;;;;;3.72;1.75;;;17.30;73.20;;;;;;5050686;28;20174;-62
2022/07/28 04:47:35;;;;;;;1.40;1.05;;;17.30;72.80;;;;;;5050895;28;20173;-60
2022/07/28 04:50:01;;;;;;;1.63;1.30;;;17.30;73.00;;;;;;5051498;28;20180;-62
2022/07/28 04:52:27;;;;;;;1.80;1.30;;;17.30;73.00;;;;;;5051156;28;20189;-62
2022/07/28 04:54:52;;;;;;;1.80;1.30;;;17.30;73.00;;;;;;5049659;28;20249;-62
2022/07/28 04:57:18;;;;;;;2.67;0.93;;;17.30;73.00;;;;;;5051388;28;20177;-62
2022/07/28 04:59:44;;;;;;;1.02;1.00;;;17.50;73.00;;;;;;5051332;28;20181;-62
2022/07/28 05:02:11;;;;;;;1.92;1.00;;;17.70;72.70;;;;;;5051011;28;20188;-63
2022/07/28 05:04:36;;;;;;;4.40;1.02;;;17.80;72.00;;;;;;5051400;28;20173;-62
2022/07/28 05:07:02;;;;;;;3.83;1.10;;;17.90;72.20;;;;;;5051234;28;20188;-62
2022/07/28 05:09:28;;;;;;;1.83;1.15;;;18.00;71.60;;;;;;5051440;28;20174;-62
2022/07/28 05:11:53;;;;;;;4.80;1.00;;;18.00;71.30;;;;;;5049558;28;20172;-63
2022/07/28 05:14:19;;;;;;;3.65;1.13;;;18.10;71.10;;;;;;5051421;28;20259;-62
2022/07/28 05:16:44;;;;;;;0.90;0.82;;;18.20;71.30;;;;;;5051446;28;20181;-62
2022/07/28 05:19:10;;;;;;;2.20;1.05;;;18.30;70.90;;;;;;5051313;28;20192;-63
2022/07/28 05:21:36;;;;;;;1.63;0.90;;;18.40;71.00;;;;;;5051247;28;20232;-63
2022/07/28 05:24:01;;;;;;;0.73;0.73;;;18.40;70.80;;;;;;5051377;28;20260;-63
2022/07/28 05:26:27;;;;;;;1.15;0.80;;;18.50;70.60;;;;;;5051180;28;20247;-63
2022/07/28 05:28:53;;;;;;;3.17;0.90;;;18.40;70.60;;;;;;5051217;28;20562;-63
2022/07/28 05:31:19;;;;;;;2.35;1.10;;;18.30;70.70;;;;;;5051151;28;20181;-63
2022/07/28 05:33:45;;;;;;;2.47;1.20;;;18.40;71.20;;;;;;5054697;28;20247;-63
2022/07/28 05:36:10;;;;;;;2.88;0.95;;;18.30;71.00;;;;;;5055214;28;20508;-63
2022/07/28 05:38:36;;;;;;;3.85;0.98;;;18.30;71.10;;;;;;5054817;28;20219;-63
2022/07/28 05:41:01;;;;;;;1.35;0.95;;;18.30;71.20;;;;;;5055154;28;20188;-63
2022/07/28 05:43:27;;;;;;;4.28;1.13;;;18.50;71.50;;;;;;5054741;28;20209;-63
2022/07/28 05:45:52;;;;;;;3.08;1.20;;;19.10;71.80;;;;;;5054595;28;20217;-64
2022/07/28 05:48:19;;;;;;;1.35;0.90;;;19.90;69.70;;;;;;5054890;28;20267;-64
2022/07/28 05:50:45;;;;;;;2.72;1.13;;;20.80;67.90;;;;;;5053364;28;20209;-64
2022/07/28 05:53:11;;;;;;;4.40;1.20;;;21.40;65.20;;;;;;5054734;28;20277;-64
2022/07/28 05:55:37;;;;;;;2.15;1.10;;;22.00;64.10;;;;;;5054168;28;20307;-64
2022/07/28 05:58:03;;;;;;;1.70;0.80;;;22.50;62.50;;;;;;5054808;28;20222;-64
2022/07/28 06:00:28;;;;;;;5.28;1.63;;;23.00;61.50;;;;;;5054324;28;20201;-64
2022/07/28 06:02:54;;;;;;;2.28;1.25;;;23.10;60.20;;;;;;5054535;28;20173;-64
2022/07/28 06:05:21;;;;;;;2.00;1.00;;;23.30;59.90;;;;;;5054279;28;20207;-64
2022/07/28 06:07:48;;;;;;;2.25;1.30;;;23.50;59.80;;;;;;5054708;28;20231;-64
2022/07/28 06:10:16;;;;;;;1.80;0.85;;;23.80;59.00;;;;;;5054135;28;20231;-64
2022/07/28 06:12:44;;;;;;;2.67;1.00;;;24.30;58.70;;;;;;5054515;28;20177;-64
2022/07/28 06:15:14;;;;;;;2.22;1.20;;;24.70;57.60;;;;;;5054026;28;20224;-63
2022/07/28 06:17:41;;;;;;;3.33;1.20;;;24.90;57.20;;;;;;5054508;28;20749;-63
2022/07/28 06:20:07;;;;;;;2.05;1.00;;;25.50;57.10;;;;;;5054051;28;20325;-64
2022/07/28 06:22:44;;;;;;;1.92;1.00;;;26.10;55.40;;;;;;5054074;28;20304;-64
2022/07/28 06:25:14;;;;;;;1.20;0.90;;;26.20;54.40;;;;;;5053790;28;20173;-64
2022/07/28 06:27:40;;;;;;;1.35;0.90;;;26.40;54.60;;;;;;5054174;28;20252;-64
2022/07/28 06:30:06;;;;;;;5.07;0.88;;;26.80;53.70;;;;;;5053720;28;20228;-63
2022/07/28 06:32:32;;;;;;;1.05;0.90;;;26.50;53.40;;;;;;5052841;28;20617;-64
2022/07/28 06:34:57;;;;;;;3.60;1.20;;;26.00;53.90;;;;;;5053985;28;20205;-64
2022/07/28 06:37:23;;;;;;;3.05;1.30;;;26.00;54.90;;;;;;5052284;28;20212;-63
2022/07/28 06:39:48;;;;;;;5.28;1.40;;;26.40;54.20;;;;;;5053634;28;20177;-66
2022/07/28 06:42:14;;;;;;;7.93;1.17;;;26.50;53.90;;;;;;5053164;28;20177;-66
2022/07/28 06:44:40;;;;;;;2.70;1.30;;;26.70;53.70;;;;;;5052643;28;20185;-66
2022/07/28 06:47:05;;;;;;;1.95;1.00;;;27.00;53.20;;;;;;5053542;28;20539;-66
2022/07/28 06:49:31;;;;;;;1.65;1.10;;;27.40;53.20;;;;;;5053678;28;20177;-67
2022/07/28 06:51:56;;;;;;;3.95;1.30;;;27.70;52.00;;;;;;5051809;28;20178;-67
2022/07/28 06:54:21;;;;;;;4.25;1.30;;;27.80;51.70;;;;;;5053235;28;20216;-67
2022/07/28 06:56:47;;;;;;;4.32;1.00;;;28.10;51.60;;;;;;5052775;28;20185;-67
2022/07/28 06:59:14;;;;;;;1.90;1.08;;;28.50;51.00;;;;;;5053330;28;20704;-67
2022/07/28 07:01:40;;;;;;;1.65;1.10;;;29.00;50.20;;;;;;5053476;28;20668;-67
2022/07/28 07:04:07;;;;;;;1.67;0.90;;;29.10;50.00;;;;;;5053072;28;20189;-67
2022/07/28 07:06:32;;;;;;;1.15;1.05;;;29.30;49.60;;;;;;5053198;28;20185;-67
2022/07/28 07:08:58;;;;;;;2.53;1.30;;;29.30;49.20;;;;;;5052872;28;20180;-67
2022/07/28 07:11:25;;;;;;;2.10;1.00;;;29.40;49.20;;;;;;5052797;28;20185;-67
2022/07/28 07:13:51;;;;;;;2.97;1.35;;;29.60;49.00;;;;;;5053153;28;20543;-67
2022/07/28 07:16:17;;;;;;;4.40;1.55;;;29.80;49.40;;;;;;5052362;28;20185;-67
2022/07/28 07:18:42;;;;;;;1.65;1.00;;;30.20;48.70;;;;;;5053294;28;20629;-67
2022/07/28 07:21:08;;;;;;;2.95;1.40;;;30.50;47.80;;;;;;5052877;28;20177;-67
2022/07/28 07:23:34;;;;;;;1.98;1.30;;;30.10;47.80;;;;;;5053811;28;20572;-67
2022/07/28 07:26:00;;;;;;;1.48;1.23;;;29.40;48.80;;;;;;5052822;28;20181;-67
2022/07/28 07:28:25;;;;;;;2.50;1.30;;;29.50;49.70;;;;;;5052953;28;20185;-68
2022/07/28 07:30:51;;;;;;;2.58;1.30;;;29.70;49.20;;;;;;5052750;28;20201;-67
2022/07/28 07:33:16;;;;;;;3.22;1.30;;;29.90;48.80;;;;;;5053000;28;20636;-67
2022/07/28 07:35:42;;;;;;;1.88;1.33;;;29.90;48.70;;;;;;5052970;28;20224;-68
2022/07/28 07:38:08;;;;;;;5.47;1.60;;;29.90;48.70;;;;;;5052459;28;20231;-67
2022/07/28 07:40:34;;;;;;;2.40;1.35;;;30.10;48.80;;;;;;5052901;28;20242;-67
2022/07/28 07:42:59;;;;;;;4.65;1.58;;;30.40;48.70;;;;;;5052316;28;20177;-68
2022/07/28 07:45:25;;;;;;;2.85;1.70;;;30.80;48.20;;;;;;5052614;28;20182;-67
2022/07/28 07:47:51;;;;;;;3.85;1.63;;;31.10;47.70;;;;;;5052527;28;20192;-68
2022/07/28 07:50:16;;;;;;;2.50;1.60;;;31.10;47.70;;;;;;5052114;28;20185;-68
2022/07/28 07:52:42;;;;;;;2.13;1.63;;;30.80;47.90;;;;;;5051072;28;20173;-68
2022/07/28 07:55:08;;;;;;;5.30;1.73;;;30.30;48.80;;;;;;5051750;28;20255;-69
2022/07/28 07:57:33;;;;;;;1.85;1.55;;;30.10;48.90;;;;;;5052597;28;20177;-68
2022/07/28 07:59:59;;;;;;;3.78;1.65;;;29.90;49.20;;;;;;5052242;28;20200;-68
2022/07/28 08:02:24;;;;;;;4.93;1.75;;;30.20;49.90;;;;;;5051180;28;20185;-68
2022/07/28 08:04:50;;;;;;;5.93;1.73;;;30.70;48.80;;;;;;5051968;28;20204;-68
2022/07/28 08:07:16;;;;;;;3.13;1.65;;;30.70;48.40;;;;;;5052090;28;20540;-68
2022/07/28 08:09:41;;;;;;;4.95;1.70;;;30.40;49.00;;;;;;5051935;28;20538;-68
2022/07/28 08:12:07;;;;;;;4.03;1.70;;;30.50;49.50;;;;;;5052156;28;20723;-68
2022/07/28 08:14:32;;;;;;;2.83;1.98;;;30.90;49.00;;;;;;5053433;28;20221;-68
2022/07/28 08:16:58;;;;;;;4.50;1.65;;;31.60;48.80;;;;;;5052273;28;20201;-69
2022/07/28 08:19:24;;;;;;;3.97;1.60;;;32.20;47.50;;;;;;5052094;28;20192;-70
2022/07/28 08:21:50;;;;;;;2.25;1.80;;;32.50;47.10;;;;;;5051252;28;20232;-71
2022/07/28 08:24:15;;;;;;;4.10;1.65;;;32.40;46.40;;;;;;5051852;28;20181;-71
2022/07/28 08:26:41;;;;;;;5.13;2.20;;;32.10;47.30;;;;;;5052098;28;20268;-70
2022/07/28 08:29:08;;;;;;;4.40;2.10;;;32.10;47.80;;;;;;5051714;28;20177;-68
2022/07/28 08:31:33;;;;;;;3.22;2.13;;;32.20;47.30;;;;;;5052206;28;20185;-69
2022/07/28 08:33:59;;;;;;;4.15;1.98;;;32.10;47.50;;;;;;5051577;28;20531;-70
2022/07/28 08:36:25;;;;;;;2.55;2.05;;;32.30;47.50;;;;;;5050434;28;20648;-70
2022/07/28 08:38:50;;;;;;;2.95;1.75;;;32.20;47.70;;;;;;5051627;28;20642;-70
2022/07/28 08:41:21;;;;;;;3.75;1.90;;;32.00;47.50;;;;;;5051426;28;20200;-69
2022/07/28 08:43:51;;;;;;;5.80;2.22;;;32.00;48.10;;;;;;5051226;28;20181;-70
2022/07/28 08:46:19;;;;;;;5.07;2.45;;;31.90;47.30;;;;;;5051698;28;20223;-70
2022/07/28 08:48:46;;;;;;;4.45;2.35;;;31.70;47.60;;;;;;5051712;28;20173;-69
2022/07/28 08:51:12;;;;;;;3.28;2.30;;;31.20;48.00;;;;;;5052021;28;20205;-70
2022/07/28 08:53:39;;;;;;;3.20;2.40;;;31.30;49.70;;;;;;5051572;28;20231;-69
2022/07/28 08:56:07;;;;;;;5.45;2.13;;;31.40;48.70;;;;;;5051560;28;20221;-69
2022/07/28 08:58:34;;;;;;;2.38;1.90;;;31.40;49.00;;;;;;5052024;28;20231;-69
2022/07/28 09:01:00;;;;;;;4.30;2.00;;;31.50;48.50;;;;;;5051621;28;20227;-69
2022/07/28 09:03:27;;;;;;;3.28;2.05;;;31.00;49.20;;;;;;5051375;28;20182;-70
2022/07/28 09:05:54;;;;;;;4.45;1.92;;;30.80;50.30;;;;;;5051670;28;20220;-68
2022/07/28 09:08:20;;;;;;;5.38;2.28;;;30.70;50.20;;;;;;5054245;28;20196;-68
2022/07/28 09:10:46;;;;;;;4.50;2.60;;;30.30;50.00;;;;;;5055840;28;20165;-68
2022/07/28 09:13:13;;;;;;;3.33;2.30;;;29.90;51.00;;;;;;5055397;28;20178;-68
2022/07/28 09:15:38;;;;;;;3.30;2.28;;;29.80;51.80;;;;;;5055249;28;20209;-68
2022/07/28 09:18:04;;;;;;;4.25;2.53;;;29.70;51.80;;;;;;5055615;28;20288;-68
2022/07/28 09:20:29;;;;;;;4.88;2.20;;;29.60;52.50;;;;;;5055198;28;20186;-67
2022/07/28 09:22:58;;;;;;;4.45;2.30;;;29.60;52.80;;;;;;5055389;28;20225;-68
2022/07/28 09:25:24;;;;;;;3.05;2.20;;;29.60;52.10;;;;;;5054747;28;20192;-69
2022/07/28 09:27:50;;;;;;;6.65;2.55;;;29.70;52.60;;;;;;5053859;28;20540;-69
2022/07/28 09:30:33;;;;;;;3.40;2.35;;;29.70;52.20;;;;;;5054489;28;20177;-69
2022/07/28 09:33:19;;;;;;;3.13;2.40;;;29.70;52.70;;;;;;5055447;28;20181;-68
2022/07/28 09:35:48;;;;;;;4.93;2.53;;;29.80;52.50;;;;;;5054852;28;20232;-69
2022/07/28 09:38:14;;;;;;;4.28;2.30;;;29.80;52.40;;;;;;5055044;28;20185;-69
2022/07/28 09:40:41;;;;;;;3.53;2.50;;;29.90;52.60;;;;;;5054713;28;20178;-68
2022/07/28 09:43:09;;;;;;;4.97;2.58;;;29.80;52.20;;;;;;5055097;28;20169;-67
2022/07/28 09:45:34;;;;;;;5.88;2.40;;;29.60;52.60;;;;;;5053901;28;20640;-67
2022/07/28 09:48:09;;;;;;;3.88;2.65;;;29.70;53.50;;;;;;5055028;28;20251;-67
2022/07/28 09:50:35;;;;;;;5.10;2.45;;;29.90;53.10;;;;;;5053007;28;20183;-69
2022/07/28 09:53:23;;;;;;;8.50;2.70;;;30.10;52.90;;;;;;5054756;28;20177;-68
2022/07/28 09:56:00;;;;;;;3.72;2.58;;;30.20;52.60;;;;;;5054727;28;20220;-69
2022/07/28 09:58:29;;;;;;;3.67;2.70;;;30.40;52.80;;;;;;5053855;28;20184;-69
2022/07/28 10:01:07;;;;;;;4.45;2.63;;;30.60;51.70;;;;;;5043711;28;20169;-68
2022/07/28 10:03:35;;;;;;;6.72;3.00;;;30.60;51.90;;;;;;5054228;28;20226;-67
2022/07/28 10:06:06;;;;;;;3.30;2.80;;;30.60;52.20;;;;;;5034771;28;20239;-67
2022/07/28 10:08:49;;;;;;;4.03;2.90;;;30.60;52.10;;;;;;5034879;28;20676;-67
2022/07/28 10:11:17;;;;;;;3.45;2.90;;;30.70;51.90;;;;;;5034638;28;20186;-68
2022/07/28 10:14:06;;;;;;;2.90;2.58;;;30.90;51.60;;;;;;5034698;28;20308;-67
2022/07/28 10:16:34;;;;;;;4.57;2.58;;;30.70;51.30;;;;;;5034752;28;20217;-67
2022/07/28 10:19:02;;;;;;;3.00;2.70;;;30.60;51.60;;;;;;5034490;28;20186;-67
2022/07/28 10:21:32;;;;;;;4.28;2.80;;;30.60;51.90;;;;;;5034201;28;20201;-66
2022/07/28 10:24:02;;;;;;;4.60;2.60;;;30.70;52.50;;;;;;5034552;28;20182;-67
2022/07/28 10:26:31;;;;;;;7.88;2.92;;;30.90;51.80;;;;;;5034350;28;20174;-67
2022/07/28 10:29:04;;;;;;;3.92;2.65;;;31.00;51.60;;;;;;5034412;28;20202;-67
2022/07/28 10:31:47;;;;;;;5.13;2.95;;;31.10;51.70;;;;;;5034461;28;20182;-67
2022/07/28 10:34:36;;;;;;;4.75;2.58;;;31.50;50.70;;;;;;5034076;28;20188;-67
2022/07/28 10:37:03;;;;;;;2.90;2.60;;;31.40;50.60;;;;;;5034133;28;20634;-67
2022/07/28 10:39:40;;;;;;;4.25;2.58;;;31.40;50.60;;;;;;5032831;28;20218;-68
2022/07/28 10:42:11;;;;;;;5.93;3.05;;;31.50;50.90;;;;;;5034129;28;20173;-68
2022/07/28 10:44:38;;;;;;;4.60;3.00;;;31.60;50.60;;;;;;5016502;28;20174;-68
2022/07/28 10:47:08;;;;;;;5.30;3.00;;;31.50;50.70;;;;;;5033981;28;20182;-67
2022/07/28 10:49:35;;;;;;;3.75;3.15;;;31.50;51.00;;;;;;5034001;28;20174;-66
2022/07/28 10:52:01;;;;;;;4.50;2.85;;;31.50;50.30;;;;;;5036289;28;20232;-68
2022/07/28 10:54:29;;;;;;;4.82;2.83;;;31.50;50.30;;;;;;5053529;28;20221;-67
2022/07/28 10:57:00;;;;;;;4.10;2.78;;;31.30;50.40;;;;;;5053794;28;20190;-67
2022/07/28 10:59:28;;;;;;;3.78;2.70;;;31.10;50.40;;;;;;5052329;28;20177;-67
2022/07/28 11:01:54;;;;;;;2.70;2.50;;;31.20;50.50;;;;;;5053656;28;20245;-66
2022/07/28 11:04:50;;;;;;;4.38;2.75;;;31.10;50.50;;;;;;5053647;28;20581;-66
2022/07/28 11:07:17;;;;;;;4.10;2.83;;;30.80;50.70;;;;;;5053598;28;20256;-66
2022/07/28 11:09:46;;;;;;;3.75;2.60;;;30.60;51.20;;;;;;5053470;28;20830;-66
2022/07/28 11:12:14;;;;;;;5.32;3.22;;;30.80;51.40;;;;;;5053484;28;20649;-66
2022/07/28 11:14:41;;;;;;;4.40;2.80;;;30.90;50.80;;;;;;5053372;28;20211;-66
2022/07/28 11:17:06;;;;;;;2.65;2.30;;;31.00;51.10;;;;;;5053176;28;20192;-66
2022/07/28 11:19:43;;;;;;;4.07;2.88;;;31.00;51.20;;;;;;5053349;28;20195;-66
2022/07/28 11:22:16;;;;;;;4.68;2.60;;;30.90;50.50;;;;;;5052942;28;20217;-67
2022/07/28 11:24:56;;;;;;;6.18;2.60;;;30.70;50.70;;;;;;5053288;28;20252;-66
2022/07/28 11:27:53;;;;;;;2.95;2.63;;;30.60;51.00;;;;;;5053059;28;20173;-66
2022/07/28 11:30:24;;;;;;;2.80;2.60;;;30.40;51.10;;;;;;5052311;28;20181;-66
2022/07/28 11:32:50;;;;;;;2.92;2.60;;;30.40;51.50;;;;;;5053195;28;20216;-66
2022/07/28 11:35:23;;;;;;;4.28;2.42;;;30.40;51.70;;;;;;5052892;28;20209;-66
2022/07/28 11:38:06;;;;;;;3.90;2.80;;;30.60;51.30;;;;;;5051645;28;20629;-66
2022/07/28 11:40:36;;;;;;;3.05;2.47;;;30.80;51.40;;;;;;5051786;28;20173;-66
2022/07/28 11:43:20;;;;;;;2.92;2.33;;;30.90;50.90;;;;;;5052940;28;20166;-66
2022/07/28 11:45:47;;;;;;;2.78;2.50;;;31.00;50.70;;;;;;5052856;28;20252;-66
2022/07/28 11:48:13;;;;;;;3.70;2.55;;;30.80;50.30;;;;;;5052719;28;20181;-67
2022/07/28 11:50:39;;;;;;;2.92;2.38;;;30.60;50.70;;;;;;5052858;28;20212;-67
2022/07/28 11:53:05;;;;;;;3.15;2.70;;;30.50;51.10;;;;;;5052547;28;20193;-66
2022/07/28 11:55:32;;;;;;;3.60;2.75;;;30.70;51.70;;;;;;5052002;28;20209;-67
2022/07/28 11:58:01;;;;;;;3.30;2.33;;;30.90;51.00;;;;;;5052286;28;20667;-67
2022/07/28 12:00:28;;;;;;;3.47;2.50;;;31.00;50.70;;;;;;5051010;28;20536;-67
2022/07/28 12:02:54;;;;;;;2.65;2.45;;;31.10;50.70;;;;;;5051615;28;20573;-69
2022/07/28 12:05:21;;;;;;;2.90;2.60;;;31.30;49.90;;;;;;5050084;28;20566;-68
2022/07/28 12:07:49;;;;;;;2.60;2.40;;;31.40;50.00;;;;;;5051129;28;20640;-69
2022/07/28 12:10:26;;;;;;;6.68;2.83;;;31.70;50.60;;;;;;5053130;28;20543;-69
2022/07/28 12:13:01;;;;;;;3.85;2.83;;;32.10;49.00;;;;;;5049114;28;20176;-70
2022/07/28 12:15:27;;;;;;;3.30;2.20;;;32.40;48.60;;;;;;5050904;28;20213;-68
2022/07/28 12:17:53;;;;;;;4.05;2.78;;;32.30;48.60;;;;;;5052269;28;20524;-69
2022/07/28 12:20:19;;;;;;;4.60;2.70;;;32.00;48.40;;;;;;5052218;28;20169;-69
2022/07/28 12:23:00;;;;;;;3.95;2.60;;;31.90;48.70;;;;;;5052017;28;20229;-68
2022/07/28 12:25:26;;;;;;;3.65;2.40;;;31.60;49.00;;;;;;5051995;28;20743;-69
2022/07/28 12:27:51;;;;;;;4.75;2.55;;;31.30;49.50;;;;;;5052048;28;20230;-68
2022/07/28 12:30:25;;;;;;;3.35;2.60;;;31.10;49.80;;;;;;5051876;28;20191;-69
2022/07/28 12:32:51;;;;;;;4.00;2.50;;;31.00;49.80;;;;;;5052105;28;20177;-69
2022/07/28 12:35:17;;;;;;;2.85;2.58;;;31.00;50.00;;;;;;5051548;28;20213;-69
2022/07/28 12:37:47;;;;;;;2.97;2.45;;;31.10;49.70;;;;;;5052028;28;20172;-69
2022/07/28 12:40:14;;;;;;;5.88;2.70;;;31.10;49.80;;;;;;5051357;28;20181;-68
2022/07/28 12:42:39;;;;;;;2.92;2.38;;;31.20;49.30;;;;;;5051440;28;20177;-68
2022/07/28 12:45:07;;;;;;;3.80;2.33;;;31.20;49.50;;;;;;5051006;28;20656;-68
2022/07/28 12:47:33;;;;;;;3.80;2.60;;;31.10;49.50;;;;;;5050742;28;20174;-68
2022/07/28 12:50:09;;;;;;;3.03;2.60;;;31.00;49.50;;;;;;5051866;28;20181;-65
2022/07/28 12:52:35;;;;;;;4.72;2.50;;;30.80;49.90;;;;;;5051689;28;20610;-65
2022/07/28 12:55:00;;;;;;;3.67;2.47;;;31.00;50.00;;;;;;5051370;28;20304;-65